createdAt,value
2018-08-18T00:00:50.609Z,16.60
2018-08-18T00:03:20.740Z,16.50
2018-08-18T00:05:50.977Z,16.40
2018-08-18T00:08:21.169Z,16.30
2018-08-18T00:10:51.457Z,16.30
2018-08-18T00:13:21.681Z,16.30
2018-08-18T00:15:51.877Z,16.40
2018-08-18T00:18:22.074Z,16.50
2018-08-18T00:20:52.285Z,16.60
2018-08-18T00:23:22.435Z,16.50
2018-08-18T00:25:52.605Z,16.50
2018-08-18T00:28:25.800Z,16.40
2018-08-18T00:30:55.972Z,16.30
2018-08-18T00:33:26.133Z,16.30
2018-08-18T00:35:56.265Z,16.20
2018-08-18T00:38:26.418Z,16.10
2018-08-18T00:40:56.592Z,16.00
2018-08-18T00:43:26.688Z,15.90
2018-08-18T00:45:56.901Z,15.90
2018-08-18T00:48:27.024Z,15.90
2018-08-18T00:50:57.201Z,16.00
2018-08-18T00:53:27.345Z,16.10
2018-08-18T00:55:57.498Z,16.20
2018-08-18T00:58:30.518Z,16.20
2018-08-18T01:01:05.444Z,16.20
2018-08-18T01:03:43.695Z,16.20
2018-08-18T01:06:45.313Z,16.30
2018-08-18T01:09:15.420Z,16.20
2018-08-18T01:11:45.754Z,16.20
2018-08-18T01:14:21.731Z,16.10
2018-08-18T01:16:52.759Z,16.00
2018-08-18T01:19:23.914Z,16.00
2018-08-18T01:21:59.225Z,16.00
2018-08-18T01:24:29.585Z,15.90
2018-08-18T01:27:02.724Z,15.80
2018-08-18T01:29:32.889Z,15.80
2018-08-18T01:32:03.044Z,15.70
2018-08-18T01:34:33.185Z,15.70
2018-08-18T01:37:08.644Z,15.70
2018-08-18T01:39:38.769Z,15.70
2018-08-18T01:42:08.917Z,15.70
2018-08-18T01:44:38.996Z,15.70
2018-08-18T01:47:10.261Z,15.70
2018-08-18T01:49:40.368Z,15.80
2018-08-18T01:52:16.375Z,15.80
2018-08-18T01:54:46.625Z,15.80
2018-08-18T01:57:19.825Z,15.80
2018-08-18T01:59:50.391Z,15.70
2018-08-18T02:02:23.556Z,15.70
2018-08-18T02:04:53.983Z,15.70
2018-08-18T02:07:34.191Z,15.60
2018-08-18T02:10:05.646Z,15.60
2018-08-18T02:12:45.705Z,15.50
2018-08-18T02:15:30.474Z,15.50
2018-08-18T02:18:01.001Z,15.40
2018-08-18T02:20:31.157Z,15.40
2018-08-18T02:23:01.309Z,15.30
2018-08-18T02:25:31.448Z,15.70
2018-08-18T02:28:01.870Z,16.30
2018-08-18T02:30:31.997Z,16.80
2018-08-18T02:33:02.430Z,16.90
2018-08-18T02:35:32.552Z,17.20
2018-08-18T02:38:03.213Z,17.20
2018-08-18T02:40:33.729Z,17.00
2018-08-18T02:43:08.318Z,16.90
2018-08-18T02:45:38.446Z,17.00
2018-08-18T02:48:15.529Z,17.50
2018-08-18T02:50:51.206Z,18.10
2018-08-18T02:53:28.542Z,18.20
2018-08-18T02:55:58.661Z,18.20
2018-08-18T02:58:28.946Z,18.20
2018-08-18T03:00:59.081Z,18.20
2018-08-18T03:03:29.254Z,18.20
2018-08-18T03:06:04.382Z,18.10
2018-08-18T03:08:34.584Z,18.10
2018-08-18T03:11:05.257Z,18.10
2018-08-18T03:13:35.452Z,18.00
2018-08-18T03:16:07.120Z,18.00
2018-08-18T03:18:42.764Z,18.00
2018-08-18T03:21:12.942Z,17.90
2018-08-18T03:23:53.694Z,18.00
2018-08-18T03:26:43.405Z,17.90
2018-08-18T03:29:14.394Z,17.90
2018-08-18T03:31:44.969Z,17.90
2018-08-18T03:34:15.437Z,18.00
2018-08-18T03:36:47.220Z,18.00
2018-08-18T03:39:24.192Z,18.00
2018-08-18T03:41:56.898Z,18.00
2018-08-18T03:44:27.044Z,17.90
2018-08-18T03:46:57.128Z,18.00
2018-08-18T03:49:27.245Z,18.00
2018-08-18T03:51:57.392Z,18.00
2018-08-18T03:54:27.534Z,17.90
2018-08-18T03:56:57.598Z,17.90
2018-08-18T03:59:27.745Z,17.90
2018-08-18T04:01:59.763Z,17.90
2018-08-18T04:04:35.047Z,17.80
2018-08-18T04:07:06.688Z,17.80
2018-08-18T04:09:38.261Z,17.90
2018-08-18T04:12:10.567Z,17.90
2018-08-18T04:14:42.752Z,17.90
2018-08-18T04:17:23.657Z,18.00
2018-08-18T04:19:53.843Z,18.00
2018-08-18T04:22:24.237Z,18.10
2018-08-18T04:24:56.304Z,18.10
2018-08-18T04:27:45.704Z,18.10
2018-08-18T04:30:18.517Z,18.20
2018-08-18T04:33:02.813Z,18.20
2018-08-18T04:35:33.641Z,18.30
2018-08-18T04:38:04.768Z,18.20
2018-08-18T04:40:36.772Z,18.20
2018-08-18T04:43:06.897Z,18.20
2018-08-18T04:45:37.026Z,18.20
2018-08-18T04:48:07.441Z,18.20
2018-08-18T04:50:37.628Z,18.10
2018-08-18T04:53:07.732Z,18.10
2018-08-18T04:55:37.888Z,18.10
2018-08-18T04:58:07.994Z,18.20
2018-08-18T05:00:38.150Z,18.20
2018-08-18T05:03:08.396Z,18.20
2018-08-18T05:05:38.540Z,18.20
2018-08-18T05:08:08.660Z,18.30
2018-08-18T05:10:40.133Z,18.30
2018-08-18T05:13:10.264Z,18.30
2018-08-18T05:15:40.422Z,18.40
2018-08-18T05:18:10.540Z,18.50
2018-08-18T05:20:40.662Z,18.60
2018-08-18T05:23:24.801Z,18.60
2018-08-18T05:25:54.944Z,18.80
2018-08-18T05:28:25.073Z,18.80
2018-08-18T05:30:55.274Z,18.90
2018-08-18T05:33:25.424Z,19.10
2018-08-18T05:35:55.872Z,19.20
2018-08-18T05:38:25.990Z,19.30
2018-08-18T05:40:56.133Z,19.40
2018-08-18T05:43:26.481Z,19.50
2018-08-18T05:45:56.629Z,19.70
2018-08-18T05:48:26.910Z,19.70
2018-08-18T05:50:57.205Z,19.60
2018-08-18T05:53:29.541Z,19.60
2018-08-18T05:56:00.455Z,19.80
2018-08-18T05:59:02.012Z,20.00
2018-08-18T06:01:34.972Z,19.80
2018-08-18T06:04:12.885Z,19.90
2018-08-18T06:06:44.068Z,19.90
2018-08-18T06:09:15.749Z,20.00
2018-08-18T06:11:46.325Z,20.10
2018-08-18T06:14:16.981Z,20.10
2018-08-18T06:16:47.637Z,20.20
2018-08-18T06:19:18.008Z,20.30
2018-08-18T06:21:48.288Z,20.30
2018-08-18T06:24:18.478Z,20.50
2018-08-18T06:26:48.772Z,20.50
2018-08-18T06:29:19.033Z,20.50
2018-08-18T06:32:00.584Z,20.70
2018-08-18T06:34:32.608Z,20.90
2018-08-18T06:37:03.022Z,21.10
2018-08-18T06:39:50.380Z,21.20
2018-08-18T06:42:34.052Z,21.10
2018-08-18T06:45:04.780Z,21.10
2018-08-18T06:47:35.077Z,21.00
2018-08-18T06:50:06.359Z,21.10
2018-08-18T06:52:36.696Z,21.00
2018-08-18T06:55:07.591Z,21.00
2018-08-18T06:57:44.893Z,21.30
2018-08-18T07:00:17.934Z,21.40
2018-08-18T07:02:48.387Z,21.30
2018-08-18T07:05:19.730Z,21.20
2018-08-18T07:07:50.739Z,21.40
2018-08-18T07:10:34.280Z,21.40
2018-08-18T07:13:07.389Z,21.30
2018-08-18T07:15:44.811Z,21.30
2018-08-18T07:18:15.901Z,21.40
2018-08-18T07:20:46.164Z,21.40
2018-08-18T07:23:16.543Z,21.60
2018-08-18T07:25:51.904Z,21.40
2018-08-18T07:28:23.601Z,21.40
2018-08-18T07:30:54.171Z,21.50
2018-08-18T07:33:24.505Z,21.70
2018-08-18T07:35:54.791Z,21.90
2018-08-18T07:38:25.067Z,22.00
2018-08-18T07:40:56.192Z,22.10
2018-08-18T07:43:32.404Z,22.00
2018-08-18T07:46:07.188Z,22.20
2018-08-18T07:48:37.417Z,22.50
2018-08-18T07:51:07.743Z,22.60
2018-08-18T07:53:38.137Z,22.50
2018-08-18T07:56:08.529Z,22.40
2018-08-18T07:58:39.557Z,22.40
2018-08-18T08:01:09.848Z,22.60
2018-08-18T08:03:40.764Z,22.90
2018-08-18T08:06:11.041Z,22.90
2018-08-18T08:08:46.430Z,23.20
2018-08-18T08:11:16.805Z,23.40
2018-08-18T08:13:47.244Z,23.40
2018-08-18T08:16:17.522Z,23.60
2018-08-18T08:18:47.800Z,23.40
2018-08-18T08:21:18.213Z,23.40
2018-08-18T08:23:48.457Z,23.30
2018-08-18T08:26:18.749Z,23.20
2018-08-18T08:28:49.001Z,23.40
2018-08-18T08:31:19.305Z,23.70
2018-08-18T08:33:49.610Z,23.50
2018-08-18T08:36:19.966Z,23.60
2018-08-18T08:38:59.792Z,23.80
2018-08-18T08:41:31.810Z,24.00
2018-08-18T08:44:02.380Z,23.90
2018-08-18T08:46:33.141Z,23.80
2018-08-18T08:49:03.802Z,23.70
2018-08-18T08:51:34.162Z,23.70
2018-08-18T08:54:04.460Z,23.80
2018-08-18T08:56:39.042Z,23.70
2018-08-18T08:59:09.553Z,23.90
2018-08-18T09:01:39.812Z,23.90
2018-08-18T09:04:10.120Z,23.90
2018-08-18T09:06:57.013Z,23.90
2018-08-18T09:09:27.481Z,23.90
2018-08-18T09:11:57.616Z,23.70
2018-08-18T09:14:27.856Z,23.80
2018-08-18T09:16:57.943Z,23.70
2018-08-18T09:19:28.093Z,23.80
2018-08-18T09:22:01.388Z,23.70
2018-08-18T09:24:32.324Z,23.50
2018-08-18T09:27:04.709Z,23.60
2018-08-18T09:29:43.874Z,23.60
2018-08-18T09:32:14.401Z,23.50
2018-08-18T09:34:49.488Z,23.40
2018-08-18T09:37:19.640Z,23.60
2018-08-18T09:39:49.796Z,23.40
2018-08-18T09:42:20.647Z,23.30
2018-08-18T09:44:52.157Z,23.30
2018-08-18T09:47:22.332Z,23.30
2018-08-18T09:49:52.464Z,23.30
2018-08-18T09:52:22.604Z,23.30
2018-08-18T09:54:52.756Z,23.20
2018-08-18T09:57:22.965Z,23.40
2018-08-18T09:59:53.092Z,23.60
2018-08-18T10:02:23.141Z,23.70
2018-08-18T10:04:53.296Z,23.70
2018-08-18T10:07:23.398Z,23.80
2018-08-18T10:09:53.652Z,23.80
2018-08-18T10:12:23.800Z,24.00
2018-08-18T10:14:53.985Z,24.00
2018-08-18T10:17:24.169Z,23.90
2018-08-18T10:19:54.473Z,23.90
2018-08-18T10:22:24.580Z,24.00
2018-08-18T10:24:54.700Z,24.10
2018-08-18T10:27:35.590Z,24.20
2018-08-18T10:43:09.946Z,24.20
2018-08-18T10:45:40.107Z,24.40
2018-08-18T10:48:10.342Z,24.10
2018-08-18T10:51:22.476Z,23.80
2018-08-18T10:53:53.554Z,23.70
2018-08-18T10:56:24.267Z,23.30
2018-08-18T10:59:10.052Z,23.30
2018-08-18T11:01:52.446Z,23.00
2018-08-18T11:04:22.589Z,22.70
2018-08-18T11:06:52.709Z,22.40
2018-08-18T11:09:22.840Z,22.40
2018-08-18T11:11:53.038Z,22.40
2018-08-18T11:14:23.133Z,22.30
2018-08-18T11:16:53.260Z,22.10
2018-08-18T11:19:23.719Z,22.10
2018-08-18T11:22:04.558Z,22.00
2018-08-18T11:24:34.717Z,21.80
2018-08-18T11:27:04.978Z,21.70
2018-08-18T11:29:35.120Z,21.70
2018-08-18T11:32:05.364Z,21.70
2018-08-18T11:34:35.518Z,21.60
2018-08-18T11:37:07.224Z,21.50
2018-08-18T11:39:37.649Z,21.60
2018-08-18T11:42:07.793Z,21.70
2018-08-18T11:44:37.936Z,21.90
2018-08-18T11:47:08.121Z,22.50
2018-08-18T11:49:38.305Z,22.90
2018-08-18T11:52:08.446Z,23.10
2018-08-18T11:54:38.585Z,23.70
2018-08-18T11:57:08.969Z,24.40
2018-08-18T11:59:39.100Z,25.00
2018-08-18T12:02:09.291Z,25.70
2018-08-18T12:04:39.626Z,26.40
2018-08-18T12:07:09.789Z,26.80
2018-08-18T12:09:43.989Z,27.50
2018-08-18T12:12:14.254Z,27.60
2018-08-18T12:14:44.406Z,27.30
2018-08-18T12:17:14.553Z,27.80
2018-08-18T12:19:45.763Z,28.10
2018-08-18T12:22:15.865Z,27.90
2018-08-18T12:24:50.377Z,27.80
2018-08-18T12:27:21.045Z,27.40
2018-08-18T12:29:51.342Z,27.70
2018-08-18T12:32:25.694Z,27.70
2018-08-18T12:34:57.141Z,28.20
2018-08-18T12:37:28.462Z,28.20
2018-08-18T12:39:59.171Z,28.60
2018-08-18T12:42:29.747Z,28.80
2018-08-18T12:44:59.904Z,29.20
2018-08-18T12:47:30.152Z,29.40
2018-08-18T12:50:00.534Z,29.50
2018-08-18T12:52:39.870Z,29.40
2018-08-18T12:55:10.097Z,30.00
2018-08-18T12:57:41.561Z,30.20
2018-08-18T13:00:11.764Z,30.90
2018-08-18T13:02:46.436Z,30.40
2018-08-18T13:05:16.959Z,31.00
2018-08-18T13:07:47.052Z,31.50
2018-08-18T13:10:20.848Z,32.10
2018-08-18T13:12:51.838Z,31.70
2018-08-18T13:15:22.158Z,32.00
2018-08-18T13:17:52.310Z,31.80
2018-08-18T13:20:25.414Z,31.70
2018-08-18T13:22:55.564Z,31.40
2018-08-18T13:25:25.780Z,31.60
2018-08-18T13:27:56.917Z,32.10
2018-08-18T13:30:28.068Z,32.30
2018-08-18T13:32:59.296Z,31.70
2018-08-18T13:35:29.452Z,32.00
2018-08-18T13:38:56.519Z,32.00
2018-08-18T13:41:52.176Z,32.00
2018-08-18T13:44:47.168Z,32.10
2018-08-18T13:47:43.844Z,32.00
2018-08-18T13:50:41.419Z,32.50
2018-08-18T13:53:36.161Z,33.00
2018-08-18T13:56:07.852Z,32.90
2018-08-18T13:58:38.312Z,32.60
2018-08-18T14:01:25.336Z,32.30
2018-08-18T14:03:55.726Z,32.40
2018-08-18T14:06:26.213Z,33.20
2018-08-18T14:09:00.533Z,33.20
2018-08-18T14:11:31.641Z,32.60
2018-08-18T14:14:01.999Z,32.50
2018-08-18T14:16:32.497Z,32.70
2018-08-18T14:19:02.601Z,32.80
2018-08-18T14:21:32.762Z,32.70
2018-08-18T14:24:02.953Z,33.00
2018-08-18T14:26:33.089Z,33.10
2018-08-18T14:29:03.241Z,33.40
2018-08-18T14:31:33.382Z,33.30
2018-08-18T14:34:03.596Z,33.60
2018-08-18T14:36:33.757Z,33.90
2018-08-18T14:39:04.474Z,34.10
2018-08-18T14:41:40.682Z,34.90
2018-08-18T14:44:11.073Z,34.30
2018-08-18T14:46:41.252Z,33.90
2018-08-18T14:49:11.382Z,33.50
2018-08-18T14:51:41.441Z,33.30
2018-08-18T14:54:11.735Z,32.10
2018-08-18T14:56:41.796Z,32.80
2018-08-18T14:59:12.383Z,33.00
2018-08-18T15:01:42.473Z,33.60
2018-08-18T15:04:12.697Z,35.00
2018-08-18T15:06:42.812Z,35.60
2018-08-18T15:09:22.558Z,35.30
2018-08-18T15:11:52.702Z,34.60
2018-08-18T15:14:22.788Z,34.60
2018-08-18T15:16:52.933Z,34.50
2018-08-18T15:19:23.065Z,34.50
2018-08-18T15:21:54.432Z,34.50
2018-08-18T15:24:25.474Z,34.90
2018-08-18T15:26:55.653Z,35.00
2018-08-18T15:29:25.844Z,35.00
2018-08-18T15:31:58.149Z,34.50
2018-08-18T15:34:28.708Z,33.80
2018-08-18T15:36:58.863Z,33.60
2018-08-18T15:39:29.908Z,34.10
2018-08-18T15:42:01.169Z,34.50
2018-08-18T15:44:31.369Z,34.60
2018-08-18T15:47:01.488Z,34.70
2018-08-18T15:49:31.636Z,35.50
2018-08-18T15:52:01.700Z,37.00
2018-08-18T15:54:32.126Z,36.50
2018-08-18T15:57:02.289Z,34.40
2018-08-18T15:59:32.457Z,33.50
2018-08-18T16:02:02.584Z,33.40
2018-08-18T16:04:32.732Z,33.40
2018-08-18T16:07:02.796Z,33.50
2018-08-18T16:09:32.925Z,33.50
2018-08-18T16:12:03.093Z,33.60
2018-08-18T16:14:33.224Z,33.40
2018-08-18T16:17:03.401Z,33.60
2018-08-18T16:19:34.988Z,33.80
2018-08-18T16:22:06.216Z,33.30
2018-08-18T16:24:40.783Z,33.00
2018-08-18T16:27:10.976Z,32.90
2018-08-18T16:29:41.429Z,32.80
2018-08-18T16:32:18.959Z,33.10
2018-08-18T16:34:51.385Z,33.30
2018-08-18T16:37:21.545Z,33.40
2018-08-18T16:39:51.628Z,32.80
2018-08-18T16:42:21.701Z,32.80
2018-08-18T16:44:51.857Z,32.90
2018-08-18T16:47:21.985Z,33.20
2018-08-18T16:49:52.109Z,33.00
2018-08-18T16:52:22.296Z,32.60
2018-08-18T16:54:52.446Z,32.50
2018-08-18T16:57:22.977Z,32.50
2018-08-18T16:59:53.113Z,32.60
2018-08-18T17:02:34.192Z,32.80
2018-08-18T17:05:04.601Z,32.60
2018-08-18T17:07:34.737Z,32.20
2018-08-18T17:10:05.325Z,32.10
2018-08-18T17:12:35.364Z,31.90
2018-08-18T17:15:06.473Z,31.80
2018-08-18T17:17:36.561Z,31.70
2018-08-18T17:20:08.155Z,31.50
2018-08-18T17:22:38.528Z,31.40
2018-08-18T17:25:10.296Z,31.30
2018-08-18T17:27:40.433Z,31.10
2018-08-18T17:30:10.565Z,30.80
2018-08-18T17:32:40.721Z,30.40
2018-08-18T17:35:10.872Z,29.90
2018-08-18T17:37:41.018Z,29.50
2018-08-18T17:40:11.302Z,29.10
2018-08-18T17:42:41.457Z,28.70
2018-08-18T17:45:11.853Z,28.30
2018-08-18T17:47:52.909Z,27.80
2018-08-18T17:50:23.020Z,27.40
2018-08-18T17:52:53.125Z,26.90
2018-08-18T17:55:23.564Z,26.50
2018-08-18T17:57:53.710Z,26.10
2018-08-18T18:00:24.560Z,25.70
2018-08-18T18:02:58.945Z,25.30
2018-08-18T18:05:33.615Z,25.10
2018-08-18T18:08:05.136Z,24.90
2018-08-18T18:10:36.514Z,24.70
2018-08-18T18:13:16.585Z,24.40
2018-08-18T18:15:48.181Z,24.20
2018-08-18T18:18:19.541Z,24.00
2018-08-18T18:20:51.281Z,23.90
2018-08-18T18:23:22.031Z,23.80
2018-08-18T18:25:52.348Z,23.60
2018-08-18T18:28:22.545Z,23.40
2018-08-18T18:30:53.464Z,23.30
2018-08-18T18:33:23.617Z,23.10
2018-08-18T18:35:53.856Z,23.00
2018-08-18T18:38:24.013Z,22.80
2018-08-18T18:40:54.100Z,22.60
2018-08-18T18:43:24.323Z,22.40
2018-08-18T18:45:54.538Z,22.40
2018-08-18T18:48:24.573Z,22.30
2018-08-18T18:50:54.770Z,22.30
2018-08-18T18:53:25.425Z,22.20
2018-08-18T18:55:55.568Z,22.10
2018-08-18T18:58:25.844Z,22.00
2018-08-18T19:01:01.020Z,21.90
2018-08-18T19:03:31.474Z,21.80
2018-08-18T19:06:01.726Z,21.70
2018-08-18T19:08:31.806Z,21.60
2018-08-18T19:11:04.270Z,21.50
2018-08-18T19:13:34.414Z,21.50
2018-08-18T19:16:04.602Z,21.40
2018-08-18T19:18:34.632Z,21.40
2018-08-18T19:21:05.048Z,21.30
2018-08-18T19:23:35.168Z,21.20
2018-08-18T19:26:05.361Z,21.20
2018-08-18T19:28:35.502Z,21.10
2018-08-18T19:31:05.704Z,21.10
2018-08-18T19:33:35.784Z,21.10
2018-08-18T19:36:05.965Z,21.10
2018-08-18T19:38:36.092Z,21.20
2018-08-18T19:41:06.538Z,21.20
2018-08-18T19:43:37.145Z,21.20
2018-08-18T19:46:07.241Z,21.20
2018-08-18T19:48:37.394Z,21.20
2018-08-18T19:51:07.664Z,21.00
2018-08-18T19:53:37.737Z,21.00
2018-08-18T19:56:10.912Z,20.90
2018-08-18T19:58:41.061Z,20.80
2018-08-18T20:01:11.233Z,20.70
2018-08-18T20:03:41.304Z,20.60
2018-08-18T20:06:26.644Z,20.50
2018-08-18T20:08:56.799Z,20.40
2018-08-18T20:11:26.977Z,20.20
2018-08-18T20:13:57.120Z,20.00
2018-08-18T20:16:27.229Z,19.90
2018-08-18T20:18:57.413Z,19.80
2018-08-18T20:21:27.721Z,19.80
2018-08-18T20:23:57.827Z,19.80
2018-08-18T20:26:27.953Z,19.70
2018-08-18T20:31:36.017Z,19.70
2018-08-18T20:34:06.423Z,19.50
2018-08-18T20:36:37.012Z,19.40
2018-08-18T20:39:09.024Z,19.30
2018-08-18T20:41:39.914Z,19.20
2018-08-18T20:44:10.624Z,19.20
2018-08-18T20:49:10.824Z,19.00
2018-08-18T20:51:42.338Z,18.90
2018-08-18T20:54:12.889Z,18.90
2018-08-18T20:56:43.655Z,18.80
2018-08-18T20:59:14.483Z,18.70
2018-08-18T21:01:44.936Z,18.60
2018-08-18T21:06:45.205Z,18.60
2018-08-18T21:09:32.994Z,18.50
2018-08-18T21:12:03.541Z,18.40
2018-08-18T21:17:03.831Z,18.30
2018-08-18T21:19:36.536Z,18.30
2018-08-18T21:22:07.089Z,18.30
2018-08-18T21:27:07.049Z,18.30
2018-08-18T21:29:37.430Z,18.40
2018-08-18T21:32:07.902Z,18.40
2018-08-18T21:34:44.264Z,18.40
2018-08-18T21:37:14.588Z,18.40
2018-08-18T21:39:45.084Z,18.40
2018-08-18T21:44:45.353Z,18.60
2018-08-18T21:47:15.809Z,18.60
2018-08-18T21:49:47.573Z,18.60
2018-08-18T21:52:18.074Z,18.60
2018-08-18T21:54:48.673Z,18.50
2018-08-18T21:57:19.226Z,18.50
2018-08-18T21:59:58.297Z,18.50
2018-08-18T22:02:41.574Z,18.50
2018-08-18T22:05:13.985Z,18.40
2018-08-18T22:07:50.959Z,18.40
2018-08-18T22:10:21.754Z,18.40
2018-08-18T22:12:52.199Z,18.30
2018-08-18T22:15:23.005Z,18.30
2018-08-18T22:20:24.433Z,18.30
2018-08-18T22:22:54.922Z,18.20
2018-08-18T22:25:25.404Z,18.20
2018-08-18T22:27:55.986Z,18.20
2018-08-18T22:30:28.048Z,18.20
2018-08-18T22:32:58.637Z,18.10
2018-08-18T22:35:29.027Z,18.00
2018-08-18T22:37:59.542Z,18.00
2018-08-18T22:40:30.114Z,18.10
2018-08-18T22:43:00.586Z,18.10
2018-08-18T22:45:31.701Z,18.00
2018-08-18T22:53:01.554Z,17.90
2018-08-18T22:58:02.486Z,17.90
2018-08-18T23:00:37.494Z,17.90
2018-08-18T23:03:07.921Z,17.80
2018-08-18T23:05:38.429Z,17.80
2018-08-18T23:08:08.854Z,17.80
2018-08-18T23:10:39.469Z,17.70
2018-08-18T23:13:10.857Z,17.60
2018-08-18T23:15:41.341Z,17.50
2018-08-18T23:18:11.789Z,17.50
2018-08-18T23:20:42.289Z,17.40
2018-08-18T23:23:12.565Z,17.30
2018-08-18T23:25:43.033Z,17.30
2018-08-18T23:30:44.133Z,17.30
2018-08-18T23:33:14.753Z,17.20
2018-08-18T23:35:45.133Z,17.20
2018-08-18T23:38:15.733Z,17.10
2018-08-18T23:40:46.341Z,17.00
2018-08-18T23:43:16.664Z,17.00
2018-08-18T23:45:49.044Z,17.00
2018-08-18T23:48:20.064Z,17.00
2018-08-18T23:50:50.449Z,16.90
2018-08-18T23:55:55.416Z,16.80
